Time;durP1;ratioP1;P1;durP2;ratioP2;P2;SDS_P1;SDS_P2;PMS_P1;PMS_P2;Temp;Humidity;BMP_temperature;BMP_pressure;BME280_temperature;BME280_humidity;BME280_pressure;Samples;Min_cycle;Max_cycle;Signal;HPM_P1;HPM_P2
2024/03/27 00:00:40;;;;;;;;;;;;;;;;;;1858428;29;7014;-64
2024/03/27 00:01:36;;;;;;;;;;;;;;;;;;1866270;29;7009;-65
2024/03/27 00:02:32;;;;;;;;;;;;;;;;;;1865926;29;7014;-65
2024/03/27 00:03:29;;;;;;;;;;;;;;;;;;1866567;29;7018;-64
2024/03/27 00:04:25;;;;;;;;;;;;;;;;;;1867498;28;8109;-64
2024/03/27 00:05:21;;;;;;;;;;;;;;;;;;1866669;29;7104;-65
2024/03/27 00:06:18;;;;;;;;;;;;;;;;;;1867019;29;7009;-65
2024/03/27 00:07:14;;;;;;;;;;;;;;;;;;1868507;28;7100;-64
2024/03/27 00:08:10;;;;;;;;;;;;;;;;;;1861031;29;7017;-65
2024/03/27 00:09:11;;;;;;;;;;;;;;;;;;1858868;29;7104;-65
2024/03/27 00:10:07;;;;;;;;;;;;;;;;;;1858974;29;7119;-65
2024/03/27 00:11:04;;;;;;;;;;;;;;;;;;1866077;29;7073;-65
2024/03/27 00:12:01;;;;;;;;;;;;;;;;;;1866169;29;7013;-65
2024/03/27 00:12:57;;;;;;;;;;;;;;;;;;1865322;29;7100;-65
2024/03/27 00:13:54;;;;;;;;;;;;;;;;;;1867192;29;7346;-65
2024/03/27 00:14:50;;;;;;;;;;;;;;;;;;1865870;29;7125;-65
2024/03/27 00:15:53;;;;;;;;;;;;;;;;;;1861226;29;7014;-65
2024/03/27 00:16:50;;;;;;;;;;;;;;;;;;1859579;29;7050;-65
2024/03/27 00:17:46;;;;;;;;;;;;;;;;;;1859746;29;7117;-65
2024/03/27 00:18:42;;;;;;;;;;;;;;;;;;1858272;29;7441;-65
2024/03/27 00:19:39;;;;;;;;;;;;;;;;;;1865756;29;7013;-65
2024/03/27 00:20:35;;;;;;;;;;;;;;;;;;1860169;29;7013;-65
2024/03/27 00:21:31;;;;;;;;;;;;;;;;;;1858189;29;7321;-65
2024/03/27 00:22:28;;;;;;;;;;;;;;;;;;1858369;29;7014;-65
2024/03/27 00:23:25;;;;;;;;;;;;;;;;;;1865772;29;7022;-65
2024/03/27 00:24:21;;;;;;;;;;;;;;;;;;1866026;29;7085;-65
2024/03/27 00:25:19;;;;;;;;;;;;;;;;;;1858620;29;7141;-65
2024/03/27 00:26:15;;;;;;;;;;;;;;;;;;1865834;29;7109;-65
2024/03/27 00:27:12;;;;;;;;;;;;;;;;;;1867128;29;7104;-64
2024/03/27 00:28:09;;;;;;;;;;;;;;;;;;1859238;29;7025;-64
2024/03/27 00:29:06;;;;;;;;;;;;;;;;;;1859402;29;7014;-64
2024/03/27 00:30:05;;;;;;;;;;;;;;;;;;1866007;29;7013;-65
2024/03/27 00:31:02;;;;;;;;;;;;;;;;;;1866132;29;7014;-66
2024/03/27 00:31:58;;;;;;;;;;;;;;;;;;1858782;29;7010;-65
2024/03/27 00:32:57;;;;;;;;;;;;;;;;;;1859729;29;7010;-65
2024/03/27 00:33:54;;;;;;;;;;;;;;;;;;1859469;29;8053;-65
2024/03/27 00:34:50;;;;;;;;;;;;;;;;;;1858779;29;7013;-65
2024/03/27 00:35:59;;;;;;;;;;;;;;;;;;1858318;29;7050;-65
2024/03/27 00:36:59;;;;;;;;;;;;;;;;;;1860097;29;7101;-65
2024/03/27 00:37:55;;;;;;;;;;;;;;;;;;1859723;29;7050;-65
2024/03/27 00:38:51;;;;;;;;;;;;;;;;;;1858960;29;7096;-65
2024/03/27 00:39:48;;;;;;;;;;;;;;;;;;1864517;29;7030;-65
2024/03/27 00:40:44;;;;;;;;;;;;;;;;;;1853073;29;7117;-65
2024/03/27 00:41:41;;;;;;;;;;;;;;;;;;1851748;29;7043;-65
2024/03/27 00:42:37;;;;;;;;;;;;;;;;;;1856761;29;7030;-65
2024/03/27 00:43:35;;;;;;;;;;;;;;;;;;1858257;29;7017;-65
2024/03/27 00:44:31;;;;;;;;;;;;;;;;;;1865629;29;7014;-65
2024/03/27 00:45:27;;;;;;;;;;;;;;;;;;1864317;29;7014;-64
2024/03/27 00:46:24;;;;;;;;;;;;;;;;;;1859319;29;8102;-65
2024/03/27 00:47:20;;;;;;;;;;;;;;;;;;1858863;29;7025;-65
2024/03/27 00:48:16;;;;;;;;;;;;;;;;;;1858688;29;8082;-65
2024/03/27 00:49:13;;;;;;;;;;;;;;;;;;1865433;29;7096;-65
2024/03/27 00:50:09;;;;;;;;;;;;;;;;;;1866190;29;8011;-65
2024/03/27 00:51:05;;;;;;;;;;;;;;;;;;1865267;29;7010;-65
2024/03/27 00:52:02;;;;;;;;;;;;;;;;;;1859626;29;7013;-64
2024/03/27 00:52:58;;;;;;;;;;;;;;;;;;1865826;29;7110;-65
2024/03/27 00:53:54;;;;;;;;;;;;;;;;;;1859345;29;7013;-65
2024/03/27 00:54:51;;;;;;;;;;;;;;;;;;1858586;29;8091;-65
2024/03/27 00:55:56;;;;;;;;;;;;;;;;;;1858466;29;7101;-65
2024/03/27 00:56:53;;;;;;;;;;;;;;;;;;1858950;29;7101;-65
2024/03/27 00:57:49;;;;;;;;;;;;;;;;;;1859476;29;7115;-64
2024/03/27 00:58:47;;;;;;;;;;;;;;;;;;1858922;29;7014;-65
2024/03/27 00:59:43;;;;;;;;;;;;;;;;;;1865991;29;8092;-65
2024/03/27 01:00:41;;;;;;;;;;;;;;;;;;1859964;29;7018;-65
2024/03/27 01:01:37;;;;;;;;;;;;;;;;;;1857624;29;7017;-65
2024/03/27 01:02:33;;;;;;;;;;;;;;;;;;1857052;29;7042;-65
2024/03/27 01:03:30;;;;;;;;;;;;;;;;;;1858661;29;7013;-65
2024/03/27 01:04:26;;;;;;;;;;;;;;;;;;1858196;29;7013;-65
2024/03/27 01:05:23;;;;;;;;;;;;;;;;;;1857547;29;7101;-65
2024/03/27 01:06:19;;;;;;;;;;;;;;;;;;1859067;29;7979;-65
2024/03/27 01:07:15;;;;;;;;;;;;;;;;;;1859713;29;7209;-64
2024/03/27 01:08:12;;;;;;;;;;;;;;;;;;1857136;29;7108;-65
2024/03/27 01:09:08;;;;;;;;;;;;;;;;;;1858299;29;7046;-66
2024/03/27 01:10:05;;;;;;;;;;;;;;;;;;1858493;29;7014;-65
2024/03/27 01:11:01;;;;;;;;;;;;;;;;;;1858692;29;7014;-65
2024/03/27 01:11:58;;;;;;;;;;;;;;;;;;1859358;29;7354;-65
2024/03/27 01:12:54;;;;;;;;;;;;;;;;;;1858307;29;7014;-65
2024/03/27 01:13:50;;;;;;;;;;;;;;;;;;1857809;29;7046;-65
2024/03/27 01:14:47;;;;;;;;;;;;;;;;;;1865357;29;7026;-65
2024/03/27 01:15:52;;;;;;;;;;;;;;;;;;1864034;29;8030;-64
2024/03/27 01:16:49;;;;;;;;;;;;;;;;;;1859653;29;7130;-65
2024/03/27 01:17:46;;;;;;;;;;;;;;;;;;1859285;29;7013;-65
2024/03/27 01:18:42;;;;;;;;;;;;;;;;;;1865460;29;7013;-65
2024/03/27 01:19:38;;;;;;;;;;;;;;;;;;1865746;29;7101;-65
2024/03/27 01:20:35;;;;;;;;;;;;;;;;;;1859970;29;7026;-65
2024/03/27 01:21:31;;;;;;;;;;;;;;;;;;1858270;29;7124;-65
2024/03/27 01:22:27;;;;;;;;;;;;;;;;;;1859341;29;7109;-65
2024/03/27 01:23:24;;;;;;;;;;;;;;;;;;1858055;29;7108;-65
2024/03/27 01:24:20;;;;;;;;;;;;;;;;;;1858774;29;8109;-65
2024/03/27 01:25:16;;;;;;;;;;;;;;;;;;1865095;29;7013;-65
2024/03/27 01:26:13;;;;;;;;;;;;;;;;;;1861339;29;7948;-64
2024/03/27 01:27:09;;;;;;;;;;;;;;;;;;1865793;29;7010;-65
2024/03/27 01:28:06;;;;;;;;;;;;;;;;;;1872629;28;7045;-64
2024/03/27 01:29:02;;;;;;;;;;;;;;;;;;1865937;29;7033;-65
2024/03/27 01:29:59;;;;;;;;;;;;;;;;;;1854171;29;7013;-65
2024/03/27 01:30:55;;;;;;;;;;;;;;;;;;1864754;29;7009;-64
2024/03/27 01:31:51;;;;;;;;;;;;;;;;;;1871266;29;7101;-65
2024/03/27 01:32:48;;;;;;;;;;;;;;;;;;1866842;29;7021;-64
2024/03/27 01:33:46;;;;;;;;;;;;;;;;;;1859756;29;7046;-65
2024/03/27 01:34:43;;;;;;;;;;;;;;;;;;1865485;29;7021;-65
2024/03/27 01:35:43;;;;;;;;;;;;;;;;;;1865943;29;7044;-65
2024/03/27 01:36:40;;;;;;;;;;;;;;;;;;1859572;29;7013;-65
2024/03/27 01:37:36;;;;;;;;;;;;;;;;;;1859145;29;7116;-64
2024/03/27 01:38:32;;;;;;;;;;;;;;;;;;1865120;29;7009;-65
2024/03/27 01:39:29;;;;;;;;;;;;;;;;;;1865095;29;7130;-66
2024/03/27 01:40:25;;;;;;;;;;;;;;;;;;1858445;29;7013;-65
2024/03/27 01:41:21;;;;;;;;;;;;;;;;;;1865355;29;7050;-65
2024/03/27 01:42:18;;;;;;;;;;;;;;;;;;1865225;29;7014;-64
2024/03/27 01:43:14;;;;;;;;;;;;;;;;;;1865283;29;7124;-65
2024/03/27 01:44:20;;;;;;;;;;;;;;;;;;1865039;29;7080;-65
2024/03/27 01:45:16;;;;;;;;;;;;;;;;;;1859430;29;7014;-65
2024/03/27 01:46:14;;;;;;;;;;;;;;;;;;1857520;29;7096;-65
2024/03/27 01:47:13;;;;;;;;;;;;;;;;;;1865404;29;7383;-65
2024/03/27 01:48:10;;;;;;;;;;;;;;;;;;1865444;29;7021;-65
2024/03/27 01:49:06;;;;;;;;;;;;;;;;;;1866683;29;7100;-65
2024/03/27 01:50:04;;;;;;;;;;;;;;;;;;1865009;29;8588;-65
2024/03/27 01:51:00;;;;;;;;;;;;;;;;;;1867389;29;7025;-65
2024/03/27 01:51:57;;;;;;;;;;;;;;;;;;1859002;29;7041;-65
2024/03/27 01:52:55;;;;;;;;;;;;;;;;;;1858197;29;7107;-65
2024/03/27 01:53:52;;;;;;;;;;;;;;;;;;1858431;29;7010;-65
2024/03/27 01:54:48;;;;;;;;;;;;;;;;;;1859104;29;8090;-64
2024/03/27 01:55:45;;;;;;;;;;;;;;;;;;1858545;29;7100;-65
2024/03/27 01:56:42;;;;;;;;;;;;;;;;;;1858398;29;7049;-65
2024/03/27 01:57:38;;;;;;;;;;;;;;;;;;1859007;29;7374;-65
2024/03/27 01:58:34;;;;;;;;;;;;;;;;;;1865104;29;7100;-65
2024/03/27 01:59:32;;;;;;;;;;;;;;;;;;1866768;29;7173;-65
2024/03/27 02:00:29;;;;;;;;;;;;;;;;;;1866016;29;7035;-65
2024/03/27 02:01:28;;;;;;;;;;;;;;;;;;1866765;29;7013;-65
2024/03/27 02:02:25;;;;;;;;;;;;;;;;;;1859573;29;7021;-65
2024/03/27 02:03:21;;;;;;;;;;;;;;;;;;1866295;29;7100;-65
2024/03/27 02:04:19;;;;;;;;;;;;;;;;;;1865021;29;7035;-64
2024/03/27 02:05:15;;;;;;;;;;;;;;;;;;1859544;29;7013;-65
2024/03/27 02:06:12;;;;;;;;;;;;;;;;;;1865793;29;7104;-65
2024/03/27 02:07:09;;;;;;;;;;;;;;;;;;1865469;29;7017;-64
2024/03/27 02:08:06;;;;;;;;;;;;;;;;;;1865513;29;8120;-65
2024/03/27 02:09:02;;;;;;;;;;;;;;;;;;1859321;29;7022;-65
2024/03/27 02:10:00;;;;;;;;;;;;;;;;;;1858991;29;7096;-64
2024/03/27 02:10:57;;;;;;;;;;;;;;;;;;1858173;29;7128;-65
2024/03/27 02:11:53;;;;;;;;;;;;;;;;;;1859064;29;7046;-65
2024/03/27 02:12:50;;;;;;;;;;;;;;;;;;1864820;29;7014;-65
2024/03/27 02:13:46;;;;;;;;;;;;;;;;;;1866329;29;7013;-65
2024/03/27 02:14:43;;;;;;;;;;;;;;;;;;1859282;29;7983;-65
2024/03/27 02:15:39;;;;;;;;;;;;;;;;;;1857642;29;7109;-65
2024/03/27 02:16:35;;;;;;;;;;;;;;;;;;1865779;29;7042;-64
2024/03/27 02:17:32;;;;;;;;;;;;;;;;;;1872118;29;7014;-65
2024/03/27 02:18:28;;;;;;;;;;;;;;;;;;1860268;29;7112;-65
2024/03/27 02:19:24;;;;;;;;;;;;;;;;;;1858096;29;7097;-65
2024/03/27 02:21:55;;;;;;;;;;;;;;;;;;1868705;29;7037;-64
2024/03/27 02:22:55;;;;;;;;;;;;;;;;;;1873549;29;7014;-65
2024/03/27 02:24:03;;;;;;;;;;;;;;;;;;1867218;29;7128;-65
2024/03/27 02:25:05;;;;;;;;;;;;;;;;;;1865597;29;7096;-65
2024/03/27 02:26:17;;;;;;;;;;;;;;;;;;1864728;29;8057;-65
2024/03/27 02:27:13;;;;;;;;;;;;;;;;;;1860027;29;7037;-65
2024/03/27 02:28:10;;;;;;;;;;;;;;;;;;1866803;29;7120;-65
2024/03/27 02:29:06;;;;;;;;;;;;;;;;;;1872667;29;7320;-65
2024/03/27 02:30:03;;;;;;;;;;;;;;;;;;1868448;29;7009;-65
2024/03/27 02:30:59;;;;;;;;;;;;;;;;;;1855349;29;7013;-64
2024/03/27 02:31:55;;;;;;;;;;;;;;;;;;1856320;29;7101;-64
2024/03/27 02:32:52;;;;;;;;;;;;;;;;;;1857812;29;7014;-65
2024/03/27 02:33:48;;;;;;;;;;;;;;;;;;1858059;29;7017;-64
2024/03/27 02:34:44;;;;;;;;;;;;;;;;;;1865310;29;7077;-65
2024/03/27 02:35:41;;;;;;;;;;;;;;;;;;1858252;29;8034;-65
2024/03/27 02:36:37;;;;;;;;;;;;;;;;;;1851154;29;7014;-65
2024/03/27 02:37:33;;;;;;;;;;;;;;;;;;1858872;29;7018;-65
2024/03/27 02:38:30;;;;;;;;;;;;;;;;;;1851745;29;7054;-65
2024/03/27 02:39:26;;;;;;;;;;;;;;;;;;1852134;29;7014;-65
2024/03/27 02:40:22;;;;;;;;;;;;;;;;;;1852231;29;7124;-66
2024/03/27 02:41:19;;;;;;;;;;;;;;;;;;1859631;29;8219;-65
2024/03/27 02:42:15;;;;;;;;;;;;;;;;;;1860191;29;7100;-65
2024/03/27 02:43:12;;;;;;;;;;;;;;;;;;1859602;29;8669;-65
2024/03/27 02:44:08;;;;;;;;;;;;;;;;;;1852887;29;7124;-65
2024/03/27 02:45:04;;;;;;;;;;;;;;;;;;1851130;29;7513;-65
2024/03/27 02:46:01;;;;;;;;;;;;;;;;;;1852017;29;7078;-66
2024/03/27 02:46:57;;;;;;;;;;;;;;;;;;1852359;29;7018;-65
2024/03/27 02:47:53;;;;;;;;;;;;;;;;;;1852332;29;7105;-65
2024/03/27 02:48:50;;;;;;;;;;;;;;;;;;1851875;29;7010;-65
2024/03/27 02:49:47;;;;;;;;;;;;;;;;;;1851736;29;7130;-65
2024/03/27 02:50:43;;;;;;;;;;;;;;;;;;1859169;29;7053;-65
2024/03/27 02:51:39;;;;;;;;;;;;;;;;;;1859050;29;7046;-66
2024/03/27 02:52:36;;;;;;;;;;;;;;;;;;1852589;29;7100;-65
2024/03/27 02:53:32;;;;;;;;;;;;;;;;;;1852501;29;7131;-65
2024/03/27 02:54:28;;;;;;;;;;;;;;;;;;1852957;29;7017;-65
2024/03/27 02:55:25;;;;;;;;;;;;;;;;;;1859906;29;7350;-65
2024/03/27 02:56:21;;;;;;;;;;;;;;;;;;1853290;29;7043;-64
2024/03/27 02:57:18;;;;;;;;;;;;;;;;;;1852023;29;7018;-65
2024/03/27 02:58:14;;;;;;;;;;;;;;;;;;1851962;29;7105;-65
2024/03/27 02:59:10;;;;;;;;;;;;;;;;;;1851968;29;7116;-64
2024/03/27 03:00:10;;;;;;;;;;;;;;;;;;1852907;29;8136;-64
2024/03/27 03:01:07;;;;;;;;;;;;;;;;;;1852672;29;7013;-65
2024/03/27 03:02:03;;;;;;;;;;;;;;;;;;1852313;29;7101;-64
2024/03/27 03:02:59;;;;;;;;;;;;;;;;;;1851877;29;8019;-65
2024/03/27 03:03:55;;;;;;;;;;;;;;;;;;1858732;29;7319;-65
2024/03/27 03:04:52;;;;;;;;;;;;;;;;;;1857611;29;7025;-64
2024/03/27 03:05:48;;;;;;;;;;;;;;;;;;1853434;29;7046;-65
2024/03/27 03:06:44;;;;;;;;;;;;;;;;;;1852018;29;7101;-66
2024/03/27 03:07:41;;;;;;;;;;;;;;;;;;1851802;29;7033;-65
2024/03/27 03:08:37;;;;;;;;;;;;;;;;;;1852132;29;7014;-65
2024/03/27 03:09:33;;;;;;;;;;;;;;;;;;1858798;29;7152;-65
2024/03/27 03:10:30;;;;;;;;;;;;;;;;;;1853032;29;7018;-65
2024/03/27 03:11:26;;;;;;;;;;;;;;;;;;1851673;29;7010;-65
2024/03/27 03:12:24;;;;;;;;;;;;;;;;;;1852053;29;7097;-64
2024/03/27 03:13:20;;;;;;;;;;;;;;;;;;1851828;29;7049;-65
2024/03/27 03:14:16;;;;;;;;;;;;;;;;;;1851965;29;7014;-65
2024/03/27 03:15:13;;;;;;;;;;;;;;;;;;1852012;29;7116;-65
2024/03/27 03:16:09;;;;;;;;;;;;;;;;;;1858778;29;7017;-65
2024/03/27 03:17:05;;;;;;;;;;;;;;;;;;1853502;29;7125;-64
2024/03/27 03:18:02;;;;;;;;;;;;;;;;;;1852290;29;7432;-65
2024/03/27 03:18:59;;;;;;;;;;;;;;;;;;1852272;29;7010;-65
2024/03/27 03:19:55;;;;;;;;;;;;;;;;;;1859072;29;7013;-65
2024/03/27 03:21:00;;;;;;;;;;;;;;;;;;1857859;29;8005;-65
2024/03/27 03:21:56;;;;;;;;;;;;;;;;;;1853256;29;9930;-65
2024/03/27 03:22:53;;;;;;;;;;;;;;;;;;1853107;29;7100;-65
2024/03/27 03:23:49;;;;;;;;;;;;;;;;;;1851975;29;7117;-65
2024/03/27 03:24:46;;;;;;;;;;;;;;;;;;1852309;29;7135;-65
2024/03/27 03:25:42;;;;;;;;;;;;;;;;;;1851896;29;7138;-65
2024/03/27 03:26:38;;;;;;;;;;;;;;;;;;1858840;29;7101;-65
2024/03/27 03:27:35;;;;;;;;;;;;;;;;;;1858459;29;7017;-65
2024/03/27 03:28:31;;;;;;;;;;;;;;;;;;1860497;29;7042;-65
2024/03/27 03:29:27;;;;;;;;;;;;;;;;;;1852838;29;7094;-65
2024/03/27 03:30:24;;;;;;;;;;;;;;;;;;1852248;29;7034;-65
2024/03/27 03:31:21;;;;;;;;;;;;;;;;;;1858769;29;7100;-65
2024/03/27 03:32:17;;;;;;;;;;;;;;;;;;1852748;29;7014;-65
2024/03/27 03:33:13;;;;;;;;;;;;;;;;;;1851423;29;7037;-65
2024/03/27 03:34:10;;;;;;;;;;;;;;;;;;1851048;29;7096;-66
2024/03/27 03:35:06;;;;;;;;;;;;;;;;;;1859016;29;7113;-65
2024/03/27 03:36:03;;;;;;;;;;;;;;;;;;1860044;29;7050;-65
2024/03/27 03:36:59;;;;;;;;;;;;;;;;;;1866163;29;7097;-65
2024/03/27 03:37:55;;;;;;;;;;;;;;;;;;1867257;29;7017;-65
2024/03/27 03:38:52;;;;;;;;;;;;;;;;;;1866072;29;7009;-65
2024/03/27 03:39:48;;;;;;;;;;;;;;;;;;1859147;29;7009;-66
2024/03/27 03:40:48;;;;;;;;;;;;;;;;;;1858769;29;7077;-65
2024/03/27 03:41:44;;;;;;;;;;;;;;;;;;1859487;29;7040;-65
2024/03/27 03:42:41;;;;;;;;;;;;;;;;;;1859653;29;7013;-64
2024/03/27 03:43:37;;;;;;;;;;;;;;;;;;1858531;29;7041;-65
2024/03/27 03:44:34;;;;;;;;;;;;;;;;;;1858463;29;7010;-65
2024/03/27 03:45:30;;;;;;;;;;;;;;;;;;1857220;29;7101;-65
2024/03/27 03:46:27;;;;;;;;;;;;;;;;;;1858423;29;7050;-65
2024/03/27 03:47:23;;;;;;;;;;;;;;;;;;1858952;29;7121;-65
2024/03/27 03:48:21;;;;;;;;;;;;;;;;;;1866111;29;7422;-65
2024/03/27 03:49:18;;;;;;;;;;;;;;;;;;1860273;29;7013;-65
2024/03/27 03:50:14;;;;;;;;;;;;;;;;;;1865635;29;7038;-65
2024/03/27 03:51:10;;;;;;;;;;;;;;;;;;1865811;29;7010;-64
2024/03/27 03:52:06;;;;;;;;;;;;;;;;;;1859664;29;7104;-64
2024/03/27 03:53:03;;;;;;;;;;;;;;;;;;1865655;29;7338;-65
2024/03/27 03:53:59;;;;;;;;;;;;;;;;;;1865911;29;7009;-65
2024/03/27 03:54:55;;;;;;;;;;;;;;;;;;1859655;29;7068;-64
2024/03/27 03:55:52;;;;;;;;;;;;;;;;;;1860080;29;7021;-65
2024/03/27 03:56:48;;;;;;;;;;;;;;;;;;1865755;29;7010;-65
2024/03/27 03:57:44;;;;;;;;;;;;;;;;;;1867098;29;8091;-64
2024/03/27 03:58:41;;;;;;;;;;;;;;;;;;1865839;29;7065;-65
2024/03/27 03:59:37;;;;;;;;;;;;;;;;;;1859959;29;7104;-65
2024/03/27 04:00:34;;;;;;;;;;;;;;;;;;1866836;28;7100;-65
2024/03/27 04:01:30;;;;;;;;;;;;;;;;;;1872617;28;7010;-65
2024/03/27 04:02:26;;;;;;;;;;;;;;;;;;1873932;28;7010;-65
2024/03/27 04:03:23;;;;;;;;;;;;;;;;;;1866931;29;7010;-65
2024/03/27 04:04:19;;;;;;;;;;;;;;;;;;1859600;29;7097;-65
2024/03/27 04:05:15;;;;;;;;;;;;;;;;;;1858564;29;7046;-66
2024/03/27 04:06:12;;;;;;;;;;;;;;;;;;1859240;29;7101;-66
2024/03/27 04:07:08;;;;;;;;;;;;;;;;;;1856975;29;7067;-65
2024/03/27 04:08:05;;;;;;;;;;;;;;;;;;1858146;29;7054;-65
2024/03/27 04:09:01;;;;;;;;;;;;;;;;;;1858680;29;7131;-65
2024/03/27 04:09:58;;;;;;;;;;;;;;;;;;1858837;29;7134;-65
2024/03/27 04:10:54;;;;;;;;;;;;;;;;;;1866073;29;7115;-65
2024/03/27 04:11:50;;;;;;;;;;;;;;;;;;1865893;29;7077;-66
2024/03/27 04:12:47;;;;;;;;;;;;;;;;;;1860309;29;7013;-65
2024/03/27 04:13:43;;;;;;;;;;;;;;;;;;1859036;29;7132;-65
2024/03/27 04:14:40;;;;;;;;;;;;;;;;;;1864618;29;7018;-65
2024/03/27 04:15:39;;;;;;;;;;;;;;;;;;1866015;29;8093;-65
2024/03/27 04:16:35;;;;;;;;;;;;;;;;;;1865761;29;7013;-65
2024/03/27 04:17:32;;;;;;;;;;;;;;;;;;1860097;29;7046;-65
2024/03/27 04:18:28;;;;;;;;;;;;;;;;;;1860515;29;7086;-65
2024/03/27 04:19:24;;;;;;;;;;;;;;;;;;1858899;29;9809;-65
2024/03/27 04:20:21;;;;;;;;;;;;;;;;;;1858669;29;7014;-65
2024/03/27 04:21:17;;;;;;;;;;;;;;;;;;1858975;29;7140;-65
2024/03/27 04:22:14;;;;;;;;;;;;;;;;;;1858796;29;7125;-65
2024/03/27 04:23:11;;;;;;;;;;;;;;;;;;1858392;29;7104;-65
2024/03/27 04:24:07;;;;;;;;;;;;;;;;;;1859256;29;7116;-65
2024/03/27 04:25:06;;;;;;;;;;;;;;;;;;1866449;29;7026;-65
2024/03/27 04:26:04;;;;;;;;;;;;;;;;;;1865828;29;7485;-65
2024/03/27 04:27:00;;;;;;;;;;;;;;;;;;1859310;29;7470;-65
2024/03/27 04:27:56;;;;;;;;;;;;;;;;;;1859316;29;7017;-65
2024/03/27 04:28:53;;;;;;;;;;;;;;;;;;1858450;29;7393;-65
2024/03/27 04:29:56;;;;;;;;;;;;;;;;;;1858685;29;7018;-65
2024/03/27 04:30:55;;;;;;;;;;;;;;;;;;1852597;29;7022;-65
2024/03/27 04:31:51;;;;;;;;;;;;;;;;;;1853196;29;7013;-65
2024/03/27 04:32:48;;;;;;;;;;;;;;;;;;1858370;29;8016;-65
2024/03/27 04:33:44;;;;;;;;;;;;;;;;;;1858502;29;7109;-65
2024/03/27 04:34:40;;;;;;;;;;;;;;;;;;1866119;29;7659;-65
2024/03/27 04:35:37;;;;;;;;;;;;;;;;;;1867145;29;7010;-65
2024/03/27 04:36:33;;;;;;;;;;;;;;;;;;1860422;29;8100;-65
2024/03/27 04:37:30;;;;;;;;;;;;;;;;;;1859415;29;7050;-65
2024/03/27 04:38:26;;;;;;;;;;;;;;;;;;1858902;29;7143;-65
2024/03/27 04:39:22;;;;;;;;;;;;;;;;;;1858971;29;7759;-65
2024/03/27 04:40:19;;;;;;;;;;;;;;;;;;1859249;29;7334;-65
2024/03/27 04:41:15;;;;;;;;;;;;;;;;;;1851710;29;7818;-66
2024/03/27 04:42:12;;;;;;;;;;;;;;;;;;1851575;29;7101;-65
2024/03/27 04:43:08;;;;;;;;;;;;;;;;;;1865523;29;7046;-65
2024/03/27 04:44:04;;;;;;;;;;;;;;;;;;1873509;28;7021;-65
2024/03/27 04:45:01;;;;;;;;;;;;;;;;;;1866596;29;7117;-65
2024/03/27 04:45:57;;;;;;;;;;;;;;;;;;1851413;29;7112;-65
2024/03/27 04:46:54;;;;;;;;;;;;;;;;;;1851247;29;7049;-65
2024/03/27 04:47:50;;;;;;;;;;;;;;;;;;1856328;29;7096;-65
2024/03/27 04:48:46;;;;;;;;;;;;;;;;;;1859385;29;7014;-65
2024/03/27 04:49:43;;;;;;;;;;;;;;;;;;1858966;29;7013;-65
2024/03/27 04:50:39;;;;;;;;;;;;;;;;;;1858262;29;7382;-65
2024/03/27 04:51:35;;;;;;;;;;;;;;;;;;1865317;29;7050;-65
2024/03/27 04:52:32;;;;;;;;;;;;;;;;;;1873070;28;7061;-65
2024/03/27 04:53:28;;;;;;;;;;;;;;;;;;1865480;29;7009;-65
2024/03/27 04:54:24;;;;;;;;;;;;;;;;;;1859120;29;7100;-66
2024/03/27 04:55:21;;;;;;;;;;;;;;;;;;1858278;29;7151;-65
2024/03/27 04:56:17;;;;;;;;;;;;;;;;;;1859256;29;7042;-65
2024/03/27 04:57:13;;;;;;;;;;;;;;;;;;1858443;29;7112;-65
2024/03/27 04:58:10;;;;;;;;;;;;;;;;;;1865853;29;7559;-65
2024/03/27 04:59:06;;;;;;;;;;;;;;;;;;1864661;29;7045;-65
2024/03/27 05:00:12;;;;;;;;;;;;;;;;;;1867006;29;7021;-65
2024/03/27 05:01:08;;;;;;;;;;;;;;;;;;1868359;29;7034;-65
2024/03/27 05:02:04;;;;;;;;;;;;;;;;;;1859525;29;7013;-65
2024/03/27 05:03:01;;;;;;;;;;;;;;;;;;1865586;29;7141;-65
2024/03/27 05:03:57;;;;;;;;;;;;;;;;;;1865387;29;7014;-65
2024/03/27 05:04:54;;;;;;;;;;;;;;;;;;1860071;29;7124;-65
2024/03/27 05:05:50;;;;;;;;;;;;;;;;;;1857854;29;7050;-65
2024/03/27 05:06:46;;;;;;;;;;;;;;;;;;1860168;29;7014;-65
2024/03/27 05:07:43;;;;;;;;;;;;;;;;;;1865760;29;7671;-65
2024/03/27 05:08:39;;;;;;;;;;;;;;;;;;1867279;29;7013;-65
2024/03/27 05:09:35;;;;;;;;;;;;;;;;;;1865660;29;7014;-64
2024/03/27 05:10:31;;;;;;;;;;;;;;;;;;1866718;29;7017;-64
2024/03/27 05:11:28;;;;;;;;;;;;;;;;;;1859745;29;7104;-65
2024/03/27 05:12:24;;;;;;;;;;;;;;;;;;1860110;29;7017;-65
2024/03/27 05:13:21;;;;;;;;;;;;;;;;;;1859316;29;7054;-65
2024/03/27 05:14:20;;;;;;;;;;;;;;;;;;1858223;29;7655;-65
2024/03/27 05:15:16;;;;;;;;;;;;;;;;;;1865568;29;7013;-65
2024/03/27 05:16:13;;;;;;;;;;;;;;;;;;1866517;29;7018;-65
2024/03/27 05:17:10;;;;;;;;;;;;;;;;;;1859722;29;8476;-65
2024/03/27 05:18:07;;;;;;;;;;;;;;;;;;1858592;29;7081;-65
2024/03/27 05:19:04;;;;;;;;;;;;;;;;;;1858225;29;7014;-65
2024/03/27 05:20:00;;;;;;;;;;;;;;;;;;1858427;29;7069;-65
2024/03/27 05:20:56;;;;;;;;;;;;;;;;;;1857449;29;7138;-65
2024/03/27 05:21:53;;;;;;;;;;;;;;;;;;1858082;29;7991;-65
2024/03/27 05:22:51;;;;;;;;;;;;;;;;;;1865505;29;7010;-65
2024/03/27 05:23:47;;;;;;;;;;;;;;;;;;1865760;29;7017;-64
2024/03/27 05:24:45;;;;;;;;;;;;;;;;;;1860511;29;7046;-65
2024/03/27 05:25:41;;;;;;;;;;;;;;;;;;1859008;29;8022;-65
2024/03/27 05:26:38;;;;;;;;;;;;;;;;;;1858935;29;7033;-65
2024/03/27 05:27:35;;;;;;;;;;;;;;;;;;1858646;29;8046;-65
2024/03/27 05:28:31;;;;;;;;;;;;;;;;;;1865936;29;7013;-65
2024/03/27 05:29:27;;;;;;;;;;;;;;;;;;1865132;29;7014;-65
2024/03/27 05:30:24;;;;;;;;;;;;;;;;;;1865336;29;8150;-65
2024/03/27 05:31:20;;;;;;;;;;;;;;;;;;1859534;29;7362;-65
2024/03/27 05:32:16;;;;;;;;;;;;;;;;;;1858475;29;7045;-66
2024/03/27 05:33:13;;;;;;;;;;;;;;;;;;1858227;29;7134;-64
2024/03/27 05:34:09;;;;;;;;;;;;;;;;;;1859122;29;7338;-65
2024/03/27 05:35:06;;;;;;;;;;;;;;;;;;1859629;29;7013;-65
2024/03/27 05:36:02;;;;;;;;;;;;;;;;;;1858737;29;7013;-65
2024/03/27 05:36:58;;;;;;;;;;;;;;;;;;1858565;29;8057;-64
2024/03/27 05:37:55;;;;;;;;;;;;;;;;;;1851620;29;7013;-65
2024/03/27 05:38:51;;;;;;;;;;;;;;;;;;1851714;29;7013;-65
2024/03/27 05:39:47;;;;;;;;;;;;;;;;;;1857223;29;8148;-65
2024/03/27 05:40:44;;;;;;;;;;;;;;;;;;1858411;29;7271;-65
2024/03/27 05:41:40;;;;;;;;;;;;;;;;;;1858628;29;7045;-65
2024/03/27 05:42:37;;;;;;;;;;;;;;;;;;1858564;29;7100;-65
2024/03/27 05:43:33;;;;;;;;;;;;;;;;;;1864395;29;7412;-65
2024/03/27 05:44:29;;;;;;;;;;;;;;;;;;1872776;29;7150;-65
2024/03/27 05:45:26;;;;;;;;;;;;;;;;;;1868219;29;7042;-66
2024/03/27 05:46:22;;;;;;;;;;;;;;;;;;1859466;29;7093;-65
2024/03/27 05:47:19;;;;;;;;;;;;;;;;;;1858278;29;7022;-65
2024/03/27 05:48:15;;;;;;;;;;;;;;;;;;1862619;29;7009;-65
2024/03/27 05:49:12;;;;;;;;;;;;;;;;;;1867174;29;7326;-65
2024/03/27 05:50:09;;;;;;;;;;;;;;;;;;1866569;29;7030;-65
2024/03/27 05:51:06;;;;;;;;;;;;;;;;;;1859405;29;7079;-66
2024/03/27 05:52:03;;;;;;;;;;;;;;;;;;1857038;29;7101;-66
2024/03/27 05:52:59;;;;;;;;;;;;;;;;;;1858336;29;7101;-66
2024/03/27 05:53:55;;;;;;;;;;;;;;;;;;1858503;29;7013;-66
2024/03/27 05:54:52;;;;;;;;;;;;;;;;;;1859219;29;7359;-65
2024/03/27 05:55:55;;;;;;;;;;;;;;;;;;1858686;29;7127;-65
2024/03/27 05:56:51;;;;;;;;;;;;;;;;;;1859641;29;7014;-65
2024/03/27 05:57:48;;;;;;;;;;;;;;;;;;1866422;29;7020;-65
2024/03/27 05:58:44;;;;;;;;;;;;;;;;;;1864586;29;7013;-65
2024/03/27 05:59:40;;;;;;;;;;;;;;;;;;1857081;29;7112;-65
2024/03/27 06:00:37;;;;;;;;;;;;;;;;;;1866106;29;7938;-65
2024/03/27 06:01:33;;;;;;;;;;;;;;;;;;1865851;29;7133;-65
2024/03/27 06:02:29;;;;;;;;;;;;;;;;;;1859874;29;7042;-65
2024/03/27 06:03:26;;;;;;;;;;;;;;;;;;1859934;29;7046;-65
2024/03/27 06:04:22;;;;;;;;;;;;;;;;;;1859544;29;7021;-66
2024/03/27 06:05:18;;;;;;;;;;;;;;;;;;1865399;29;7014;-66
2024/03/27 06:06:15;;;;;;;;;;;;;;;;;;1869292;29;7120;-65
2024/03/27 06:07:11;;;;;;;;;;;;;;;;;;1866775;29;7077;-65
2024/03/27 06:08:08;;;;;;;;;;;;;;;;;;1859701;29;7014;-65
2024/03/27 06:09:04;;;;;;;;;;;;;;;;;;1858317;29;7026;-65
2024/03/27 06:10:00;;;;;;;;;;;;;;;;;;1858170;29;7201;-65
2024/03/27 06:10:57;;;;;;;;;;;;;;;;;;1858843;29;7046;-66
2024/03/27 06:11:53;;;;;;;;;;;;;;;;;;1860504;29;8033;-64
2024/03/27 06:12:49;;;;;;;;;;;;;;;;;;1860017;29;7109;-65
2024/03/27 06:13:46;;;;;;;;;;;;;;;;;;1861767;29;7342;-65
2024/03/27 06:14:42;;;;;;;;;;;;;;;;;;1867266;29;7013;-66
2024/03/27 06:15:38;;;;;;;;;;;;;;;;;;1868149;29;9318;-65
2024/03/27 06:16:35;;;;;;;;;;;;;;;;;;1860357;29;7014;-65
2024/03/27 06:17:31;;;;;;;;;;;;;;;;;;1867186;29;7117;-65
2024/03/27 06:18:28;;;;;;;;;;;;;;;;;;1866494;29;7042;-65
2024/03/27 06:19:24;;;;;;;;;;;;;;;;;;1860876;29;7121;-65
2024/03/27 06:20:21;;;;;;;;;;;;;;;;;;1859926;29;7123;-65
2024/03/27 06:21:18;;;;;;;;;;;;;;;;;;1858947;29;7114;-65
2024/03/27 06:22:14;;;;;;;;;;;;;;;;;;1859889;29;7018;-65
2024/03/27 06:23:10;;;;;;;;;;;;;;;;;;1866891;29;7021;-65
2024/03/27 06:24:07;;;;;;;;;;;;;;;;;;1874270;28;8080;-65
2024/03/27 06:25:05;;;;;;;;;;;;;;;;;;1868339;29;7034;-65
2024/03/27 06:26:03;;;;;;;;;;;;;;;;;;1861687;29;7014;-65
2024/03/27 06:26:59;;;;;;;;;;;;;;;;;;1860146;29;7146;-66
2024/03/27 06:27:55;;;;;;;;;;;;;;;;;;1866200;29;8106;-65
2024/03/27 06:28:51;;;;;;;;;;;;;;;;;;1867200;29;7104;-65
2024/03/27 06:29:49;;;;;;;;;;;;;;;;;;1866103;29;7021;-65
2024/03/27 06:30:46;;;;;;;;;;;;;;;;;;1861066;29;7018;-65
2024/03/27 06:31:42;;;;;;;;;;;;;;;;;;1860355;29;7101;-65
2024/03/27 06:32:40;;;;;;;;;;;;;;;;;;1858715;29;7050;-65
2024/03/27 06:33:36;;;;;;;;;;;;;;;;;;1859932;29;7117;-66
2024/03/27 06:34:32;;;;;;;;;;;;;;;;;;1867197;29;7021;-64
2024/03/27 06:35:29;;;;;;;;;;;;;;;;;;1866337;29;7014;-65
2024/03/27 06:36:25;;;;;;;;;;;;;;;;;;1860774;29;7120;-65